Thunder radar more information blitzortung!


Radar de pluja more information rain snow radar


Visita la nostra xarxa de llocs de meteo:

Template documentation
and downloads

And another site



No particular awareness of the weather is required.    There are no Weather-warnings

Pagina Historial Weather Underground text

Diari Resum January 26, 2018 Unitats:  Tant    Imperial   Mètric
« Previous Dia
SegĂźent Dia »
Diari Setmana Mensual Anual Personalitzada
  Maxima: Minima: Media:
Temperatura: TemperatureC °F /  -17.8 °C 4.3 °F /  -15.4 °C 6 °F /  -14.4 °C
Punt de rosada: DewpointC °F /  -17.8 °C 2.4 °F /  -16.4 °C 4 °F /  -15.6 °C
Humitat: Humidity % 84 % 86 %
Wind Speed: WindSpeedKMH mph /  0 km/h - 4.9 mph /  7.9 km/h
RĂ fegues de vent: WindSpeedGustKMH mph /  0 km/h - -
Vent:- - SSE
Pression baro: PressurehPa in /  0 hPa 1013.8 in /  34327.3 hPa -
Precipitacions: 42.4 in /  1076.96 mm    
Historical Graphs
 
 
Dades de taula per January 26, 2018
Temps Temperatura Punt de rosada Pression baro Vent Wind Speed RĂ fegues de vent Humitat Rainfall Rate (Hourly)
TemperatureC °F /  -17.8 °C DewpointC °F /  -17.8 °C PressurehPa in /  0 hPa Calm     Humidity % HourlyPrecipMM in /  0 mm
00:00 7.9 °F /  -13.4 °C 6.1 °F /  -14.4 °C 1013.8 in /  34327.3 hPa WSW 1.6 mph /  2.6 km/h 3.2 mph /  5.1 km/h 88 % 2.0 in /  50.8 mm
00:03 10.4 °F /  -12 °C 7.8 °F /  -13.4 °C 1015.8 in /  34395 hPa East 3.7 mph /  6 km/h 3.9 mph /  6.3 km/h 84 % 0.0 in /  0 mm
00:08 10.3 °F /  -12.1 °C 7.7 °F /  -13.5 °C 1015.8 in /  34395 hPa NE 5.6 mph /  9 km/h 5.6 mph /  9 km/h 84 % 0.0 in /  0 mm
00:10 7.8 °F /  -13.4 °C 5.9 °F /  -14.5 °C 1013.8 in /  34327.3 hPa West 4.8 mph /  7.7 km/h 4.8 mph /  7.7 km/h 88 % 2.3 in /  58.42 mm
00:13 10.3 °F /  -12.1 °C 7.9 °F /  -13.4 °C 1015.8 in /  34395 hPa NNE 5.6 mph /  9 km/h 5.6 mph /  9 km/h 85 % 0.0 in /  0 mm
00:18 10.3 °F /  -12.1 °C 7.9 °F /  -13.4 °C 1015.8 in /  34395 hPa NE 5.6 mph /  9 km/h 5.6 mph /  9 km/h 85 % 0.0 in /  0 mm
00:20 7.8 °F /  -13.4 °C 5.9 °F /  -14.5 °C 1013.8 in /  34327.3 hPa Calm   4.8 mph /  7.7 km/h 88 % 1.3 in /  33.02 mm
00:23 10.3 °F /  -12.1 °C 7.9 °F /  -13.4 °C 1015.8 in /  34395 hPa ENE 3.7 mph /  6 km/h 3.7 mph /  6 km/h 85 % 0.0 in /  0 mm
00:28 10.3 °F /  -12.1 °C 7.9 °F /  -13.4 °C 1015.8 in /  34395 hPa North 4.7 mph /  7.6 km/h 4.7 mph /  7.6 km/h 85 % 0.0 in /  0 mm
00:30 7.7 °F /  -13.5 °C 5.8 °F /  -14.6 °C 1013.8 in /  34327.3 hPa WSW 3.2 mph /  5.1 km/h 4.8 mph /  7.7 km/h 88 % 0.0 in /  0 mm
00:33 10.3 °F /  -12.1 °C 8.1 °F /  -13.3 °C 1015.8 in /  34395 hPa Calm     86 % 0.0 in /  0 mm
00:38 10.2 °F /  -12.1 °C 7.9 °F /  -13.4 °C 1015.8 in /  34395 hPa NNE 3.9 mph /  6.3 km/h 3.9 mph /  6.3 km/h 86 % 0.0 in /  0 mm
00:40 7.7 °F /  -13.5 °C 5.7 °F /  -14.6 °C 1013.8 in /  34327.3 hPa WSW 3.2 mph /  5.1 km/h 6.4 mph /  10.3 km/h 87 % 0.0 in /  0 mm
00:43 10.2 °F /  -12.1 °C 7.9 °F /  -13.4 °C 1015.8 in /  34395 hPa NE 1.9 mph /  3.1 km/h 1.9 mph /  3.1 km/h 86 % 0.0 in /  0 mm
00:48 10.2 °F /  -12.1 °C 7.9 °F /  -13.4 °C 1015.8 in /  34395 hPa NNW 1.9 mph /  3.1 km/h   86 % 0.0 in /  0 mm
00:50 7.7 °F /  -13.5 °C 5.8 °F /  -14.6 °C 1013.8 in /  34327.3 hPa West 3.2 mph /  5.1 km/h 4.8 mph /  7.7 km/h 88 % 0.0 in /  0 mm
00:53 10.2 °F /  -12.1 °C 7.9 °F /  -13.4 °C 1015.8 in /  34395 hPa NNW 1.9 mph /  3.1 km/h   86 % 0.0 in /  0 mm
00:58 10.2 °F /  -12.1 °C 8.1 °F /  -13.3 °C 1015.8 in /  34395 hPa Calm     87 % 0.0 in /  0 mm
01:00 7.7 °F /  -13.5 °C 5.8 °F /  -14.6 °C 1013.8 in /  34327.3 hPa Calm   3.2 mph /  5.1 km/h 88 % 0.0 in /  0 mm
01:03 10.2 °F /  -12.1 °C 8.1 °F /  -13.3 °C 1014.8 in /  34361.1 hPa NNE 3.7 mph /  6 km/h 3.7 mph /  6 km/h 87 % 0.0 in /  0 mm
01:08 10.2 °F /  -12.1 °C 8.1 °F /  -13.3 °C 1014.8 in /  34361.1 hPa NNE 1.9 mph /  3.1 km/h 1.9 mph /  3.1 km/h 87 % 0.0 in /  0 mm
01:10 7.6 °F /  -13.6 °C 5.7 °F /  -14.6 °C 1013.8 in /  34327.3 hPa Calm   3.2 mph /  5.1 km/h 88 % 0.0 in /  0 mm
01:13 10.2 °F /  -12.1 °C 8.1 °F /  -13.3 °C 1014.8 in /  34361.1 hPa Calm     87 % 0.0 in /  0 mm
01:18 10.2 °F /  -12.1 °C 8.1 °F /  -13.3 °C 1014.8 in /  34361.1 hPa NNE 1.9 mph /  3.1 km/h 1.9 mph /  3.1 km/h 87 % 0.0 in /  0 mm
01:20 7.6 °F /  -13.6 °C 5.7 °F /  -14.6 °C 1013.8 in /  34327.3 hPa Calm   3.2 mph /  5.1 km/h 88 % 0.0 in /  0 mm
01:23 10.1 °F /  -12.2 °C 8.1 °F /  -13.3 °C 1014.8 in /  34361.1 hPa NNE 5.6 mph /  9 km/h 5.6 mph /  9 km/h 87 % 0.0 in /  0 mm
01:28 10.1 °F /  -12.2 °C 8.2 °F /  -13.2 °C 1014.8 in /  34361.1 hPa NE 3.7 mph /  6 km/h 3.7 mph /  6 km/h 88 % 1.0 in /  25.4 mm
01:30 7.7 °F /  -13.5 °C 6.0 °F /  -14.4 °C 1013.8 in /  34327.3 hPa WNW 1.6 mph /  2.6 km/h 3.2 mph /  5.1 km/h 89 % 1.0 in /  25.4 mm
01:33 10.1 °F /  -12.2 °C 8.2 °F /  -13.2 °C 1014.8 in /  34361.1 hPa North 2.6 mph /  4.2 km/h 2.6 mph /  4.2 km/h 88 % 1.0 in /  25.4 mm
01:38 10.1 °F /  -12.2 °C 8.2 °F /  -13.2 °C 1014.8 in /  34361.1 hPa NE 5.6 mph /  9 km/h 5.6 mph /  9 km/h 88 % 1.0 in /  25.4 mm
01:40 7.7 °F /  -13.5 °C 6.0 °F /  -14.4 °C 1013.8 in /  34327.3 hPa Calm   3.2 mph /  5.1 km/h 89 % 1.0 in /  25.4 mm
01:43 10.1 °F /  -12.2 °C 8.2 °F /  -13.2 °C 1014.8 in /  34361.1 hPa Calm     88 % 1.0 in /  25.4 mm
01:48 10.1 °F /  -12.2 °C 8.2 °F /  -13.2 °C 1014.8 in /  34361.1 hPa Calm     88 % 1.0 in /  25.4 mm
01:50 7.6 °F /  -13.6 °C 5.9 °F /  -14.5 °C 1013.8 in /  34327.3 hPa NNE 3.2 mph /  5.1 km/h 6.4 mph /  10.3 km/h 89 % 0.0 in /  0 mm
01:53 10.2 °F /  -12.1 °C 8.3 °F /  -13.2 °C 1014.8 in /  34361.1 hPa NNE 3.7 mph /  6 km/h 3.9 mph /  6.3 km/h 88 % 1.0 in /  25.4 mm
01:58 10.1 °F /  -12.2 °C 8.2 °F /  -13.2 °C 1014.8 in /  34361.1 hPa NNE 5.6 mph /  9 km/h 5.6 mph /  9 km/h 88 % 1.0 in /  25.4 mm
02:00 7.3 °F /  -13.7 °C 5.4 °F /  -14.8 °C 1013.8 in /  34327.3 hPa NNE 3.2 mph /  5.1 km/h 14.5 mph /  23.3 km/h 88 % 0.0 in /  0 mm
02:03 10.1 °F /  -12.2 °C 8.4 °F /  -13.1 °C 1013.8 in /  34327.3 hPa NNE 4.2 mph /  6.8 km/h 4.2 mph /  6.8 km/h 89 % 1.0 in /  25.4 mm
02:08 10.1 °F /  -12.2 °C 8.4 °F /  -13.1 °C 1013.8 in /  34327.3 hPa NNE 5.6 mph /  9 km/h 5.6 mph /  9 km/h 89 % 1.0 in /  25.4 mm
02:10 7.0 °F /  -13.9 °C 5.0 °F /  -15 °C 1013.8 in /  34327.3 hPa NNE 3.2 mph /  5.1 km/h 9.7 mph /  15.6 km/h 87 % 0.0 in /  0 mm
02:13 10.1 °F /  -12.2 °C 8.4 °F /  -13.1 °C 1013.8 in /  34327.3 hPa ENE 3.7 mph /  6 km/h 3.7 mph /  6 km/h 89 % 1.0 in /  25.4 mm
02:18 10.1 °F /  -12.2 °C 8.4 °F /  -13.1 °C 1013.8 in /  34327.3 hPa Calm     89 % 1.0 in /  25.4 mm
02:20 6.7 °F /  -14.1 °C 4.7 °F /  -15.2 °C 1014.8 in /  34361.1 hPa WNW 3.2 mph /  5.1 km/h 4.8 mph /  7.7 km/h 87 % 0.0 in /  0 mm
02:23 10.1 °F /  -12.2 °C 8.4 °F /  -13.1 °C 1013.8 in /  34327.3 hPa ENE 1.9 mph /  3.1 km/h   89 % 1.0 in /  25.4 mm
02:28 10.1 °F /  -12.2 °C 8.4 °F /  -13.1 °C 1013.8 in /  34327.3 hPa ENE 1.9 mph /  3.1 km/h   89 % 0.0 in /  0 mm
02:30 6.6 °F /  -14.1 °C 4.4 °F /  -15.3 °C 1014.8 in /  34361.1 hPa WNW 4.8 mph /  7.7 km/h 11.3 mph /  18.2 km/h 86 % 0.0 in /  0 mm
02:33 10.1 °F /  -12.2 °C 8.4 °F /  -13.1 °C 1013.8 in /  34327.3 hPa Calm     89 % 0.0 in /  0 mm
02:38 10.1 °F /  -12.2 °C 8.4 °F /  -13.1 °C 1013.8 in /  34327.3 hPa WSW 3.7 mph /  6 km/h 3.7 mph /  6 km/h 89 % 0.0 in /  0 mm
02:40 6.4 °F /  -14.2 °C 4.2 °F /  -15.4 °C 1014.8 in /  34361.1 hPa NNW 4.8 mph /  7.7 km/h 8.0 mph /  12.9 km/h 86 % 3.0 in /  76.2 mm
02:43 10.1 °F /  -12.2 °C 8.4 °F /  -13.1 °C 1013.8 in /  34327.3 hPa WSW 3.7 mph /  6 km/h 3.7 mph /  6 km/h 89 % 0.0 in /  0 mm
02:48 10.1 °F /  -12.2 °C 8.2 °F /  -13.2 °C 1013.8 in /  34327.3 hPa West 3.7 mph /  6 km/h 3.7 mph /  6 km/h 88 % 0.0 in /  0 mm
02:50 6.1 °F /  -14.4 °C 3.9 °F /  -15.6 °C 1014.8 in /  34361.1 hPa NNE 8.0 mph /  12.9 km/h 8.0 mph /  12.9 km/h 86 % 3.0 in /  76.2 mm
02:53 10.2 °F /  -12.1 °C 8.3 °F /  -13.2 °C 1013.8 in /  34327.3 hPa WSW 3.7 mph /  6 km/h 3.7 mph /  6 km/h 88 % 0.0 in /  0 mm
02:58 9.9 °F /  -12.3 °C 8.0 °F /  -13.3 °C 1013.8 in /  34327.3 hPa SW 5.8 mph /  9.3 km/h 5.8 mph /  9.3 km/h 88 % 0.0 in /  0 mm
03:00 6.0 °F /  -14.4 °C 3.7 °F /  -15.7 °C 1014.8 in /  34361.1 hPa NE 8.0 mph /  12.9 km/h 16.1 mph /  25.9 km/h 85 % 2.0 in /  50.8 mm
09:09 5.8 °F /  -14.6 °C 3.6 °F /  -15.8 °C 1014.8 in /  34361.1 hPa NNE 5.6 mph /  9 km/h 10.0 mph /  16.1 km/h 86 % 7.4 in /  187.96 mm
09:14 5.8 °F /  -14.6 °C 3.6 °F /  -15.8 °C 1014.8 in /  34361.1 hPa ENE 16.7 mph /  26.9 km/h 16.7 mph /  26.9 km/h 86 % 7.4 in /  187.96 mm
09:19 5.8 °F /  -14.6 °C 3.6 °F /  -15.8 °C 1014.8 in /  34361.1 hPa East 16.7 mph /  26.9 km/h 16.7 mph /  26.9 km/h 86 % 6.3 in /  160.02 mm
09:24 5.7 °F /  -14.6 °C 3.7 °F /  -15.7 °C 1014.8 in /  34361.1 hPa NW 14.8 mph /  23.8 km/h 14.8 mph /  23.8 km/h 87 % 6.3 in /  160.02 mm
09:29 5.7 °F /  -14.6 °C 3.7 °F /  -15.7 °C 1014.8 in /  34361.1 hPa NNE 24.1 mph /  38.8 km/h 24.1 mph /  38.8 km/h 87 % 6.3 in /  160.02 mm
09:34 5.6 °F /  -14.7 °C 3.6 °F /  -15.8 °C 1014.8 in /  34361.1 hPa ENE 16.7 mph /  26.9 km/h 16.7 mph /  26.9 km/h 87 % 6.3 in /  160.02 mm
09:39 5.6 °F /  -14.7 °C 3.6 °F /  -15.8 °C 1014.8 in /  34361.1 hPa NNE 16.7 mph /  26.9 km/h 16.7 mph /  26.9 km/h 87 % 7.4 in /  187.96 mm
09:44 5.6 °F /  -14.7 °C 3.6 °F /  -15.8 °C 1014.8 in /  34361.1 hPa ENE 14.8 mph /  23.8 km/h 14.8 mph /  23.8 km/h 87 % 7.4 in /  187.96 mm
09:49 5.6 °F /  -14.7 °C 3.6 °F /  -15.8 °C 1015.8 in /  34395 hPa NNW 9.3 mph /  15 km/h 9.3 mph /  15 km/h 87 % 7.4 in /  187.96 mm
09:54 5.6 °F /  -14.7 °C 3.6 °F /  -15.8 °C 1015.8 in /  34395 hPa NE 16.7 mph /  26.9 km/h 16.7 mph /  26.9 km/h 87 % 5.3 in /  134.62 mm
09:59 5.6 °F /  -14.7 °C 3.6 °F /  -15.8 °C 1015.8 in /  34395 hPa NNE 5.6 mph /  9 km/h 5.6 mph /  9 km/h 87 % 6.3 in /  160.02 mm
10:04 5.6 °F /  -14.7 °C 3.6 °F /  -15.8 °C 1015.8 in /  34395 hPa NNE 7.4 mph /  11.9 km/h 7.4 mph /  11.9 km/h 87 % 4.3 in /  109.22 mm
10:09 5.6 °F /  -14.7 °C 3.6 °F /  -15.8 °C 1015.8 in /  34395 hPa WNW 9.3 mph /  15 km/h 9.3 mph /  15 km/h 87 % 3.0 in /  76.2 mm
10:14 5.6 °F /  -14.7 °C 3.6 °F /  -15.8 °C 1015.8 in /  34395 hPa NNW 3.9 mph /  6.3 km/h 3.9 mph /  6.3 km/h 87 % 3.0 in /  76.2 mm
10:19 5.7 °F /  -14.6 °C 3.7 °F /  -15.7 °C 1016.8 in /  34428.8 hPa NNE 3.9 mph /  6.3 km/h 3.9 mph /  6.3 km/h 87 % 4.1 in /  104.14 mm
10:24 5.7 °F /  -14.6 °C 3.7 °F /  -15.7 °C 1016.8 in /  34428.8 hPa WNW 3.7 mph /  6 km/h 3.7 mph /  6 km/h 87 % 4.1 in /  104.14 mm
10:29 5.7 °F /  -14.6 °C 3.7 °F /  -15.7 °C 1016.8 in /  34428.8 hPa NE 5.8 mph /  9.3 km/h 5.8 mph /  9.3 km/h 87 % 4.1 in /  104.14 mm
10:34 5.6 °F /  -14.7 °C 3.6 °F /  -15.8 °C 1017.8 in /  34462.7 hPa NNE 10.3 mph /  16.6 km/h 10.3 mph /  16.6 km/h 87 % 4.1 in /  104.14 mm
10:39 5.6 °F /  -14.7 °C 3.6 °F /  -15.8 °C 1017.8 in /  34462.7 hPa ENE 9.3 mph /  15 km/h 9.3 mph /  15 km/h 87 % 3.0 in /  76.2 mm
10:44 5.5 °F /  -14.7 °C 3.3 °F /  -15.9 °C 1017.8 in /  34462.7 hPa NNE 9.3 mph /  15 km/h 9.3 mph /  15 km/h 86 % 3.0 in /  76.2 mm
10:49 5.5 °F /  -14.7 °C 3.3 °F /  -15.9 °C 1017.8 in /  34462.7 hPa NNE 7.4 mph /  11.9 km/h 7.4 mph /  11.9 km/h 86 % 3.0 in /  76.2 mm
10:54 5.4 °F /  -14.8 °C 3.2 °F /  -16 °C 1017.8 in /  34462.7 hPa NNE 11.1 mph /  17.9 km/h 11.1 mph /  17.9 km/h 86 % 5.3 in /  134.62 mm
10:59 5.4 °F /  -14.8 °C 3.2 °F /  -16 °C 1017.8 in /  34462.7 hPa NNE 11.4 mph /  18.3 km/h 11.4 mph /  18.3 km/h 86 % 5.3 in /  134.62 mm
11:04 5.3 °F /  -14.8 °C 3.2 °F /  -16 °C 1017.8 in /  34462.7 hPa NNE 11.1 mph /  17.9 km/h 11.1 mph /  17.9 km/h 86 % 5.3 in /  134.62 mm
11:09 5.3 °F /  -14.8 °C 3.2 °F /  -16 °C 1017.8 in /  34462.7 hPa NNE 4.2 mph /  6.8 km/h 4.2 mph /  6.8 km/h 86 % 5.3 in /  134.62 mm
11:14 5.3 °F /  -14.8 °C 3.2 °F /  -16 °C 1017.8 in /  34462.7 hPa NE 9.3 mph /  15 km/h 9.3 mph /  15 km/h 86 % 6.3 in /  160.02 mm
11:19 5.3 °F /  -14.8 °C 3.2 °F /  -16 °C 1017.8 in /  34462.7 hPa North 10.0 mph /  16.1 km/h 10.0 mph /  16.1 km/h 86 % 5.3 in /  134.62 mm
11:24 5.2 °F /  -14.9 °C 3.1 °F /  -16.1 °C 1017.8 in /  34462.7 hPa NNE 11.1 mph /  17.9 km/h 11.1 mph /  17.9 km/h 86 % 5.3 in /  134.62 mm
11:29 5.2 °F /  -14.9 °C 3.1 °F /  -16.1 °C 1017.8 in /  34462.7 hPa NNE 13.0 mph /  20.9 km/h 13.0 mph /  20.9 km/h 86 % 5.3 in /  134.62 mm
11:34 5.3 °F /  -14.8 °C 3.2 °F /  -16 °C 1016.8 in /  34428.8 hPa NNE 11.1 mph /  17.9 km/h 11.1 mph /  17.9 km/h 86 % 5.3 in /  134.62 mm
11:39 5.2 °F /  -14.9 °C 3.1 °F /  -16.1 °C 1016.8 in /  34428.8 hPa NNE 14.8 mph /  23.8 km/h 14.8 mph /  23.8 km/h 86 % 5.3 in /  134.62 mm
11:44 5.3 °F /  -14.8 °C 3.2 °F /  -16 °C 1016.8 in /  34428.8 hPa NNE 11.1 mph /  17.9 km/h 11.1 mph /  17.9 km/h 86 % 5.3 in /  134.62 mm
11:49 5.3 °F /  -14.8 °C 3.2 °F /  -16 °C 1016.8 in /  34428.8 hPa NNE 11.1 mph /  17.9 km/h 11.1 mph /  17.9 km/h 86 % 5.3 in /  134.62 mm
11:54 5.3 °F /  -14.8 °C 3.2 °F /  -16 °C 1016.8 in /  34428.8 hPa NNE 13.0 mph /  20.9 km/h 13.0 mph /  20.9 km/h 86 % 2.0 in /  50.8 mm
11:59 5.2 °F /  -14.9 °C 3.1 °F /  -16.1 °C 1016.8 in /  34428.8 hPa NNE 11.1 mph /  17.9 km/h 11.1 mph /  17.9 km/h 86 % 2.0 in /  50.8 mm
12:04 5.2 °F /  -14.9 °C 3.1 °F /  -16.1 °C 1016.8 in /  34428.8 hPa NNE 16.7 mph /  26.9 km/h 16.7 mph /  26.9 km/h 86 % 2.0 in /  50.8 mm
12:09 5.2 °F /  -14.9 °C 3.1 °F /  -16.1 °C 1016.8 in /  34428.8 hPa NNE 13.0 mph /  20.9 km/h 13.0 mph /  20.9 km/h 86 % 2.0 in /  50.8 mm
12:14 5.1 °F /  -14.9 °C 2.9 °F /  -16.2 °C 1016.8 in /  34428.8 hPa NNE 16.7 mph /  26.9 km/h 16.7 mph /  26.9 km/h 86 % 1.0 in /  25.4 mm
12:19 5.1 °F /  -14.9 °C 2.8 °F /  -16.2 °C 1016.8 in /  34428.8 hPa North 13.0 mph /  20.9 km/h 13.0 mph /  20.9 km/h 85 % 1.0 in /  25.4 mm
12:24 5.1 °F /  -14.9 °C 2.9 °F /  -16.2 °C 1016.8 in /  34428.8 hPa NNE 9.3 mph /  15 km/h 9.3 mph /  15 km/h 86 % 1.0 in /  25.4 mm
12:29 5.1 °F /  -14.9 °C 2.9 °F /  -16.2 °C 1016.8 in /  34428.8 hPa NNE 7.4 mph /  11.9 km/h 7.4 mph /  11.9 km/h 86 % 1.0 in /  25.4 mm
12:34 5.0 °F /  -15 °C 2.8 °F /  -16.2 °C 1016.8 in /  34428.8 hPa NNW 10.3 mph /  16.6 km/h 10.3 mph /  16.6 km/h 86 % 2.0 in /  50.8 mm
12:39 5.0 °F /  -15 °C 2.8 °F /  -16.2 °C 1016.8 in /  34428.8 hPa West 9.3 mph /  15 km/h 9.3 mph /  15 km/h 86 % 2.0 in /  50.8 mm
12:44 5.0 °F /  -15 °C 2.8 °F /  -16.2 °C 1016.8 in /  34428.8 hPa NNW 7.4 mph /  11.9 km/h 7.6 mph /  12.2 km/h 86 % 2.0 in /  50.8 mm
12:49 5.0 °F /  -15 °C 2.8 °F /  -16.2 °C 1015.8 in /  34395 hPa ENE 9.3 mph /  15 km/h 9.3 mph /  15 km/h 86 % 2.0 in /  50.8 mm
12:54 5.0 °F /  -15 °C 2.8 °F /  -16.2 °C 1015.8 in /  34395 hPa NE 4.7 mph /  7.6 km/h 4.7 mph /  7.6 km/h 86 % 2.0 in /  50.8 mm
12:59 5.0 °F /  -15 °C 2.8 °F /  -16.2 °C 1015.8 in /  34395 hPa ENE 5.3 mph /  8.5 km/h 5.3 mph /  8.5 km/h 86 % 1.0 in /  25.4 mm
13:04 5.0 °F /  -15 °C 2.8 °F /  -16.2 °C 1016.8 in /  34428.8 hPa West 7.4 mph /  11.9 km/h 7.4 mph /  11.9 km/h 86 % 1.0 in /  25.4 mm
13:09 4.9 °F /  -15.1 °C 2.8 °F /  -16.2 °C 1016.8 in /  34428.8 hPa NNE 7.4 mph /  11.9 km/h 7.4 mph /  11.9 km/h 86 % 1.0 in /  25.4 mm
13:14 4.9 °F /  -15.1 °C 2.8 °F /  -16.2 °C 1016.8 in /  34428.8 hPa North 7.4 mph /  11.9 km/h 7.4 mph /  11.9 km/h 86 % 2.0 in /  50.8 mm
13:19 4.9 °F /  -15.1 °C 2.8 °F /  -16.2 °C 1016.8 in /  34428.8 hPa ENE 7.9 mph /  12.7 km/h 7.9 mph /  12.7 km/h 86 % 2.0 in /  50.8 mm
13:24 4.9 °F /  -15.1 °C 2.8 °F /  -16.2 °C 1016.8 in /  34428.8 hPa NNW 5.6 mph /  9 km/h 5.6 mph /  9 km/h 86 % 2.0 in /  50.8 mm
13:29 4.9 °F /  -15.1 °C 2.8 °F /  -16.2 °C 1016.8 in /  34428.8 hPa NNE 5.6 mph /  9 km/h 5.6 mph /  9 km/h 86 % 3.3 in /  83.82 mm
13:34 4.9 °F /  -15.1 °C 2.8 °F /  -16.2 °C 1015.8 in /  34395 hPa NNE 5.6 mph /  9 km/h 5.6 mph /  9 km/h 86 % 2.3 in /  58.42 mm
13:39 4.9 °F /  -15.1 °C 2.8 °F /  -16.2 °C 1015.8 in /  34395 hPa NE 5.6 mph /  9 km/h 5.6 mph /  9 km/h 86 % 2.3 in /  58.42 mm
13:44 4.9 °F /  -15.1 °C 2.8 °F /  -16.2 °C 1015.8 in /  34395 hPa WSW 7.4 mph /  11.9 km/h 7.4 mph /  11.9 km/h 86 % 2.3 in /  58.42 mm
13:49 5.0 °F /  -15 °C 2.7 °F /  -16.3 °C 1015.8 in /  34395 hPa ENE 9.3 mph /  15 km/h 9.3 mph /  15 km/h 85 % 2.3 in /  58.42 mm
13:54 5.0 °F /  -15 °C 2.7 °F /  -16.3 °C 1015.8 in /  34395 hPa NE 9.3 mph /  15 km/h 9.3 mph /  15 km/h 85 % 3.3 in /  83.82 mm
13:59 5.1 °F /  -14.9 °C 2.8 °F /  -16.2 °C 1015.8 in /  34395 hPa NNW 11.1 mph /  17.9 km/h 11.1 mph /  17.9 km/h 85 % 3.3 in /  83.82 mm
14:04 5.2 °F /  -14.9 °C 3.1 °F /  -16.1 °C 1016.8 in /  34428.8 hPa SW 3.7 mph /  6 km/h 3.7 mph /  6 km/h 86 % 3.3 in /  83.82 mm
14:09 5.2 °F /  -14.9 °C 3.1 °F /  -16.1 °C 1016.8 in /  34428.8 hPa WSW 5.6 mph /  9 km/h 5.6 mph /  9 km/h 86 % 3.3 in /  83.82 mm
14:14 5.3 °F /  -14.8 °C 3.2 °F /  -16 °C 1016.8 in /  34428.8 hPa SW 3.9 mph /  6.3 km/h 3.9 mph /  6.3 km/h 86 % 3.3 in /  83.82 mm
14:19 5.4 °F /  -14.8 °C 3.2 °F /  -16 °C 1015.8 in /  34395 hPa West 3.7 mph /  6 km/h 3.7 mph /  6 km/h 86 % 3.3 in /  83.82 mm
14:24 5.4 °F /  -14.8 °C 3.2 °F /  -16 °C 1015.8 in /  34395 hPa SW 3.7 mph /  6 km/h 3.7 mph /  6 km/h 86 % 3.3 in /  83.82 mm
14:29 5.6 °F /  -14.7 °C 3.4 °F /  -15.9 °C 1015.8 in /  34395 hPa SW 3.7 mph /  6 km/h 3.7 mph /  6 km/h 86 % 2.0 in /  50.8 mm
14:34 5.6 °F /  -14.7 °C 3.6 °F /  -15.8 °C 1016.8 in /  34428.8 hPa WSW 5.6 mph /  9 km/h 5.6 mph /  9 km/h 87 % 2.0 in /  50.8 mm
14:39 5.6 °F /  -14.7 °C 3.6 °F /  -15.8 °C 1016.8 in /  34428.8 hPa NW 9.3 mph /  15 km/h 9.3 mph /  15 km/h 87 % 2.0 in /  50.8 mm
14:44 5.5 °F /  -14.7 °C 3.5 °F /  -15.8 °C 1016.8 in /  34428.8 hPa West 5.6 mph /  9 km/h 5.6 mph /  9 km/h 87 % 2.0 in /  50.8 mm
14:49 5.3 °F /  -14.8 °C 3.2 °F /  -16 °C 1016.8 in /  34428.8 hPa West 7.4 mph /  11.9 km/h 7.4 mph /  11.9 km/h 86 % 2.0 in /  50.8 mm
14:54 5.2 °F /  -14.9 °C 3.1 °F /  -16.1 °C 1016.8 in /  34428.8 hPa WSW 11.1 mph /  17.9 km/h 11.1 mph /  17.9 km/h 86 % 2.0 in /  50.8 mm
14:59 5.0 °F /  -15 °C 2.8 °F /  -16.2 °C 1016.8 in /  34428.8 hPa South 13.0 mph /  20.9 km/h 13.0 mph /  20.9 km/h 86 % 2.0 in /  50.8 mm
15:04 4.9 °F /  -15.1 °C 2.8 °F /  -16.2 °C 1017.8 in /  34462.7 hPa WSW 9.3 mph /  15 km/h 9.3 mph /  15 km/h 86 % 2.0 in /  50.8 mm
15:09 4.8 °F /  -15.1 °C 2.7 °F /  -16.3 °C 1017.8 in /  34462.7 hPa WSW 9.3 mph /  15 km/h 9.3 mph /  15 km/h 86 % 2.0 in /  50.8 mm
15:14 4.8 °F /  -15.1 °C 2.7 °F /  -16.3 °C 1017.8 in /  34462.7 hPa WSW 7.6 mph /  12.2 km/h 7.6 mph /  12.2 km/h 86 % 1.0 in /  25.4 mm
15:19 4.7 °F /  -15.2 °C 2.6 °F /  -16.3 °C 1017.8 in /  34462.7 hPa WSW 9.7 mph /  15.6 km/h 9.7 mph /  15.6 km/h 86 % 1.0 in /  25.4 mm
15:24 4.7 °F /  -15.2 °C 2.6 °F /  -16.3 °C 1017.8 in /  34462.7 hPa WSW 7.6 mph /  12.2 km/h 7.6 mph /  12.2 km/h 86 % 1.0 in /  25.4 mm
15:29 4.6 °F /  -15.2 °C 2.4 °F /  -16.4 °C 1017.8 in /  34462.7 hPa WSW 7.4 mph /  11.9 km/h 7.4 mph /  11.9 km/h 86 % 1.0 in /  25.4 mm
15:34 4.6 °F /  -15.2 °C 2.4 °F /  -16.4 °C 1016.8 in /  34428.8 hPa WSW 11.1 mph /  17.9 km/h 11.1 mph /  17.9 km/h 86 % 1.0 in /  25.4 mm
15:39 4.6 °F /  -15.2 °C 2.4 °F /  -16.4 °C 1016.8 in /  34428.8 hPa West 18.5 mph /  29.8 km/h 18.5 mph /  29.8 km/h 86 % 1.0 in /  25.4 mm
15:44 4.6 °F /  -15.2 °C 2.4 °F /  -16.4 °C 1016.8 in /  34428.8 hPa WNW 14.8 mph /  23.8 km/h 14.8 mph /  23.8 km/h 86 % 1.0 in /  25.4 mm
15:49 4.6 °F /  -15.2 °C 2.4 °F /  -16.4 °C 1017.8 in /  34462.7 hPa NW 9.3 mph /  15 km/h 9.3 mph /  15 km/h 86 % 1.0 in /  25.4 mm
15:54 4.6 °F /  -15.2 °C 2.4 °F /  -16.4 °C 1017.8 in /  34462.7 hPa West 9.7 mph /  15.6 km/h 9.7 mph /  15.6 km/h 86 % 0.0 in /  0 mm
15:59 4.7 °F /  -15.2 °C 2.6 °F /  -16.3 °C 1017.8 in /  34462.7 hPa NW 16.7 mph /  26.9 km/h 16.7 mph /  26.9 km/h 86 % 0.0 in /  0 mm
16:04 4.8 °F /  -15.1 °C 2.7 °F /  -16.3 °C 1017.8 in /  34462.7 hPa WSW 9.3 mph /  15 km/h 9.3 mph /  15 km/h 86 % 0.0 in /  0 mm
16:09 4.7 °F /  -15.2 °C 2.6 °F /  -16.3 °C 1017.8 in /  34462.7 hPa WNW 9.3 mph /  15 km/h 9.3 mph /  15 km/h 86 % 0.0 in /  0 mm
16:14 4.8 °F /  -15.1 °C 2.7 °F /  -16.3 °C 1017.8 in /  34462.7 hPa SSW 5.6 mph /  9 km/h 5.6 mph /  9 km/h 86 % 0.0 in /  0 mm
16:19 4.8 °F /  -15.1 °C 2.7 °F /  -16.3 °C 1017.8 in /  34462.7 hPa WSW 11.1 mph /  17.9 km/h 11.1 mph /  17.9 km/h 86 % 0.0 in /  0 mm
16:24 4.8 °F /  -15.1 °C 2.7 °F /  -16.3 °C 1017.8 in /  34462.7 hPa SW 9.3 mph /  15 km/h 9.3 mph /  15 km/h 86 % 0.0 in /  0 mm
16:26 4.8 °F /  -15.1 °C 2.7 °F /  -16.3 °C 1017.8 in /  34462.7 hPa WSW 9.3 mph /  15 km/h 9.3 mph /  15 km/h 86 % 0.0 in /  0 mm
16:31 4.9 °F /  -15.1 °C 2.8 °F /  -16.2 °C 1017.8 in /  34462.7 hPa WSW 3.7 mph /  6 km/h 3.7 mph /  6 km/h 86 % 0.0 in /  0 mm
16:36 4.9 °F /  -15.1 °C 2.8 °F /  -16.2 °C 1017.8 in /  34462.7 hPa SW 5.6 mph /  9 km/h 5.6 mph /  9 km/h 86 % 0.0 in /  0 mm
16:41 4.9 °F /  -15.1 °C 2.6 °F /  -16.3 °C 1017.8 in /  34462.7 hPa WSW 9.3 mph /  15 km/h 9.3 mph /  15 km/h 85 % 0.0 in /  0 mm
16:46 5.0 °F /  -15 °C 2.7 °F /  -16.3 °C 1017.8 in /  34462.7 hPa NNE 9.3 mph /  15 km/h 9.3 mph /  15 km/h 85 % 0.0 in /  0 mm
16:51 5.0 °F /  -15 °C 2.7 °F /  -16.3 °C 1017.8 in /  34462.7 hPa West 7.4 mph /  11.9 km/h 7.4 mph /  11.9 km/h 85 % 1.0 in /  25.4 mm
16:56 5.0 °F /  -15 °C 2.7 °F /  -16.3 °C 1017.8 in /  34462.7 hPa WNW 5.6 mph /  9 km/h 5.6 mph /  9 km/h 85 % 1.0 in /  25.4 mm
17:01 5.1 °F /  -14.9 °C 2.8 °F /  -16.2 °C 1017.8 in /  34462.7 hPa SW 1.9 mph /  3.1 km/h   85 % 1.0 in /  25.4 mm
17:06 5.1 °F /  -14.9 °C 2.8 °F /  -16.2 °C 1017.8 in /  34462.7 hPa WSW 3.7 mph /  6 km/h 3.7 mph /  6 km/h 85 % 1.0 in /  25.4 mm
17:11 5.1 °F /  -14.9 °C 2.8 °F /  -16.2 °C 1017.8 in /  34462.7 hPa Calm     85 % 1.0 in /  25.4 mm
17:16 5.1 °F /  -14.9 °C 2.8 °F /  -16.2 °C 1017.8 in /  34462.7 hPa WSW 3.7 mph /  6 km/h 3.7 mph /  6 km/h 85 % 1.0 in /  25.4 mm
17:21 5.2 °F /  -14.9 °C 2.9 °F /  -16.2 °C 1017.8 in /  34462.7 hPa West 3.7 mph /  6 km/h   85 % 1.0 in /  25.4 mm
17:26 5.2 °F /  -14.9 °C 2.9 °F /  -16.2 °C 1017.8 in /  34462.7 hPa WSW 1.9 mph /  3.1 km/h   85 % 1.0 in /  25.4 mm
17:31 5.2 °F /  -14.9 °C 3.1 °F /  -16.1 °C 1017.8 in /  34462.7 hPa SW 2.3 mph /  3.7 km/h 2.3 mph /  3.7 km/h 86 % 1.0 in /  25.4 mm
17:36 5.2 °F /  -14.9 °C 3.1 °F /  -16.1 °C 1017.8 in /  34462.7 hPa Calm     86 % 1.0 in /  25.4 mm
17:41 5.2 °F /  -14.9 °C 3.1 °F /  -16.1 °C 1017.8 in /  34462.7 hPa Calm     86 % 1.0 in /  25.4 mm
17:46 5.3 °F /  -14.8 °C 3.2 °F /  -16 °C 1017.8 in /  34462.7 hPa SW 3.7 mph /  6 km/h 3.7 mph /  6 km/h 86 % 1.0 in /  25.4 mm
17:51 5.3 °F /  -14.8 °C 3.2 °F /  -16 °C 1017.8 in /  34462.7 hPa Calm     86 % 0.0 in /  0 mm
17:56 5.3 °F /  -14.8 °C 3.2 °F /  -16 °C 1017.8 in /  34462.7 hPa WSW 1.9 mph /  3.1 km/h 1.9 mph /  3.1 km/h 86 % 0.0 in /  0 mm
18:01 5.2 °F /  -14.9 °C 3.1 °F /  -16.1 °C 1017.8 in /  34462.7 hPa SW 3.7 mph /  6 km/h 3.7 mph /  6 km/h 86 % 0.0 in /  0 mm
18:06 5.2 °F /  -14.9 °C 3.1 °F /  -16.1 °C 1017.8 in /  34462.7 hPa SW 1.9 mph /  3.1 km/h 2.3 mph /  3.7 km/h 86 % 0.0 in /  0 mm
18:11 5.2 °F /  -14.9 °C 3.1 °F /  -16.1 °C 1017.8 in /  34462.7 hPa WSW 5.8 mph /  9.3 km/h 5.8 mph /  9.3 km/h 86 % 0.0 in /  0 mm
18:15 5.2 °F /  -14.9 °C 3.1 °F /  -16.1 °C 1017.8 in /  34462.7 hPa SW 1.6 mph /  2.6 km/h 6.4 mph /  10.3 km/h 86 % 0.0 in /  0 mm
18:20 5.2 °F /  -14.9 °C 3.1 °F /  -16.1 °C 1017.8 in /  34462.7 hPa NE 3.7 mph /  6 km/h   86 % 0.0 in /  0 mm
18:25 5.2 °F /  -14.9 °C 3.2 °F /  -16 °C 1017.8 in /  34462.7 hPa Calm     87 % 0.0 in /  0 mm
18:30 5.2 °F /  -14.9 °C 3.1 °F /  -16.1 °C 1017.8 in /  34462.7 hPa Calm   3.2 mph /  5.1 km/h 86 % 0.0 in /  0 mm
18:35 5.2 °F /  -14.9 °C 3.2 °F /  -16 °C 1018.8 in /  34496.6 hPa WSW 2.3 mph /  3.7 km/h 2.3 mph /  3.7 km/h 87 % 0.0 in /  0 mm
18:40 5.3 °F /  -14.8 °C 3.3 °F /  -15.9 °C 1018.8 in /  34496.6 hPa WSW 1.9 mph /  3.1 km/h   87 % 0.0 in /  0 mm
18:45 5.3 °F /  -14.8 °C 3.3 °F /  -15.9 °C 1018.8 in /  34496.6 hPa Calm     87 % 0.0 in /  0 mm
18:50 5.3 °F /  -14.8 °C 3.3 °F /  -15.9 °C 1018.8 in /  34496.6 hPa Calm     87 % 0.0 in /  0 mm
18:55 5.3 °F /  -14.8 °C 3.3 °F /  -15.9 °C 1018.8 in /  34496.6 hPa Calm     87 % 0.0 in /  0 mm
19:00 5.3 °F /  -14.8 °C 3.3 °F /  -15.9 °C 1018.8 in /  34496.6 hPa Calm     87 % 0.0 in /  0 mm
19:05 5.3 °F /  -14.8 °C 3.3 °F /  -15.9 °C 1018.8 in /  34496.6 hPa WSW 2.6 mph /  4.2 km/h 2.6 mph /  4.2 km/h 87 % 0.0 in /  0 mm
19:10 5.3 °F /  -14.8 °C 3.3 °F /  -15.9 °C 1018.8 in /  34496.6 hPa SW 1.9 mph /  3.1 km/h   87 % 0.0 in /  0 mm
19:15 5.3 °F /  -14.8 °C 3.3 °F /  -15.9 °C 1018.8 in /  34496.6 hPa Calm   3.2 mph /  5.1 km/h 87 % 0.0 in /  0 mm
19:20 5.2 °F /  -14.9 °C 3.2 °F /  -16 °C 1018.8 in /  34496.6 hPa Calm     87 % 0.0 in /  0 mm
19:25 5.2 °F /  -14.9 °C 3.2 °F /  -16 °C 1018.8 in /  34496.6 hPa Calm     87 % 0.0 in /  0 mm
19:30 5.2 °F /  -14.9 °C 3.2 °F /  -16 °C 1018.8 in /  34496.6 hPa Calm     87 % 0.0 in /  0 mm
19:35 5.2 °F /  -14.9 °C 3.2 °F /  -16 °C 1018.8 in /  34496.6 hPa SW 1.6 mph /  2.6 km/h 4.8 mph /  7.7 km/h 87 % 0.0 in /  0 mm
19:40 5.1 °F /  -14.9 °C 3.1 °F /  -16.1 °C 1018.8 in /  34496.6 hPa WSW 3.7 mph /  6 km/h 3.7 mph /  6 km/h 87 % 0.0 in /  0 mm
19:45 5.2 °F /  -14.9 °C 3.2 °F /  -16 °C 1018.8 in /  34496.6 hPa Calm     87 % 0.0 in /  0 mm
19:50 5.2 °F /  -14.9 °C 3.2 °F /  -16 °C 1018.8 in /  34496.6 hPa Calm   3.2 mph /  5.1 km/h 87 % 0.0 in /  0 mm
19:55 5.2 °F /  -14.9 °C 3.2 °F /  -16 °C 1018.8 in /  34496.6 hPa WSW 3.7 mph /  6 km/h 3.7 mph /  6 km/h 87 % 0.0 in /  0 mm
20:00 5.2 °F /  -14.9 °C 3.2 °F /  -16 °C 1018.8 in /  34496.6 hPa West 1.6 mph /  2.6 km/h 4.8 mph /  7.7 km/h 87 % 0.0 in /  0 mm
20:05 5.2 °F /  -14.9 °C 3.2 °F /  -16 °C 1019.9 in /  34533.8 hPa West 1.6 mph /  2.6 km/h 3.2 mph /  5.1 km/h 87 % 0.0 in /  0 mm
20:10 5.2 °F /  -14.9 °C 3.2 °F /  -16 °C 1019.9 in /  34533.8 hPa Calm     87 % 0.0 in /  0 mm
20:15 5.2 °F /  -14.9 °C 3.2 °F /  -16 °C 1019.9 in /  34533.8 hPa WSW 2.6 mph /  4.2 km/h 2.6 mph /  4.2 km/h 87 % 0.0 in /  0 mm
20:20 5.2 °F /  -14.9 °C 3.2 °F /  -16 °C 1019.9 in /  34533.8 hPa Calm     87 % 0.0 in /  0 mm
20:25 5.2 °F /  -14.9 °C 3.2 °F /  -16 °C 1019.9 in /  34533.8 hPa WSW 1.9 mph /  3.1 km/h   87 % 0.0 in /  0 mm
20:30 5.2 °F /  -14.9 °C 3.2 °F /  -16 °C 1019.9 in /  34533.8 hPa Calm     87 % 0.0 in /  0 mm
20:35 5.3 °F /  -14.8 °C 3.5 °F /  -15.8 °C 1019.9 in /  34533.8 hPa Calm     88 % 0.0 in /  0 mm
20:40 5.3 °F /  -14.8 °C 3.5 °F /  -15.8 °C 1019.9 in /  34533.8 hPa Calm     88 % 0.0 in /  0 mm
20:45 5.3 °F /  -14.8 °C 3.5 °F /  -15.8 °C 1019.9 in /  34533.8 hPa Calm     88 % 0.0 in /  0 mm
20:50 5.2 °F /  -14.9 °C 3.4 °F /  -15.9 °C 1019.9 in /  34533.8 hPa Calm     88 % 0.0 in /  0 mm
20:55 5.2 °F /  -14.9 °C 3.4 °F /  -15.9 °C 1019.9 in /  34533.8 hPa Calm     88 % 0.0 in /  0 mm
21:00 5.2 °F /  -14.9 °C 3.4 °F /  -15.9 °C 1019.9 in /  34533.8 hPa WSW 3.7 mph /  6 km/h   88 % 0.0 in /  0 mm
21:05 5.2 °F /  -14.9 °C 3.4 °F /  -15.9 °C 1019.9 in /  34533.8 hPa Calm     88 % 0.0 in /  0 mm
21:10 5.2 °F /  -14.9 °C 3.4 °F /  -15.9 °C 1019.9 in /  34533.8 hPa Calm     88 % 0.0 in /  0 mm
21:15 5.2 °F /  -14.9 °C 3.4 °F /  -15.9 °C 1019.9 in /  34533.8 hPa Calm     88 % 0.0 in /  0 mm
21:20 5.2 °F /  -14.9 °C 3.4 °F /  -15.9 °C 1019.9 in /  34533.8 hPa Calm     88 % 0.0 in /  0 mm
21:25 5.2 °F /  -14.9 °C 3.4 °F /  -15.9 °C 1019.9 in /  34533.8 hPa Calm     88 % 0.0 in /  0 mm
21:30 5.2 °F /  -14.9 °C 3.4 °F /  -15.9 °C 1019.9 in /  34533.8 hPa NNE 1.9 mph /  3.1 km/h   88 % 0.0 in /  0 mm
21:35 5.3 °F /  -14.8 °C 3.5 °F /  -15.8 °C 1019.9 in /  34533.8 hPa NNE 2.6 mph /  4.2 km/h 2.6 mph /  4.2 km/h 88 % 0.0 in /  0 mm
21:40 5.2 °F /  -14.9 °C 3.4 °F /  -15.9 °C 1019.9 in /  34533.8 hPa Calm   3.2 mph /  5.1 km/h 88 % 0.0 in /  0 mm
21:45 5.2 °F /  -14.9 °C 3.4 °F /  -15.9 °C 1019.9 in /  34533.8 hPa NE 1.9 mph /  3.1 km/h 1.9 mph /  3.1 km/h 88 % 0.0 in /  0 mm
21:50 5.1 °F /  -14.9 °C 3.3 °F /  -15.9 °C 1019.9 in /  34533.8 hPa Calm     88 % 0.0 in /  0 mm
21:55 5.1 °F /  -14.9 °C 3.2 °F /  -16 °C 1019.9 in /  34533.8 hPa Calm     88 % 0.0 in /  0 mm
22:00 4.9 °F /  -15.1 °C 3.1 °F /  -16.1 °C 1019.9 in /  34533.8 hPa Calm     88 % 0.0 in /  0 mm
22:05 4.9 °F /  -15.1 °C 3.1 °F /  -16.1 °C 1019.9 in /  34533.8 hPa West 2.3 mph /  3.7 km/h 2.6 mph /  4.2 km/h 88 % 0.0 in /  0 mm
22:10 4.8 °F /  -15.1 °C 3.0 °F /  -16.1 °C 1019.9 in /  34533.8 hPa Calm   3.2 mph /  5.1 km/h 88 % 0.0 in /  0 mm
22:15 4.8 °F /  -15.1 °C 2.9 °F /  -16.2 °C 1019.9 in /  34533.8 hPa Calm     88 % 0.0 in /  0 mm
22:20 4.8 °F /  -15.1 °C 3.0 °F /  -16.1 °C 1019.9 in /  34533.8 hPa Calm     88 % 0.0 in /  0 mm
22:25 4.7 °F /  -15.2 °C 2.9 °F /  -16.2 °C 1019.9 in /  34533.8 hPa WSW 1.9 mph /  3.1 km/h   88 % 0.0 in /  0 mm
22:30 4.7 °F /  -15.2 °C 2.9 °F /  -16.2 °C 1019.9 in /  34533.8 hPa Calm   1.6 mph /  2.6 km/h 88 % 0.0 in /  0 mm
22:35 4.7 °F /  -15.2 °C 2.9 °F /  -16.2 °C 1019.9 in /  34533.8 hPa WSW 2.3 mph /  3.7 km/h 2.3 mph /  3.7 km/h 88 % 0.0 in /  0 mm
22:40 4.7 °F /  -15.2 °C 2.9 °F /  -16.2 °C 1019.9 in /  34533.8 hPa Calm   1.6 mph /  2.6 km/h 88 % 0.0 in /  0 mm
22:45 4.7 °F /  -15.2 °C 2.9 °F /  -16.2 °C 1019.9 in /  34533.8 hPa WSW 1.6 mph /  2.6 km/h 3.2 mph /  5.1 km/h 88 % 0.0 in /  0 mm
22:50 4.7 °F /  -15.2 °C 2.9 °F /  -16.2 °C 1019.9 in /  34533.8 hPa Calm     88 % 0.0 in /  0 mm
22:55 4.6 °F /  -15.2 °C 2.8 °F /  -16.2 °C 1019.9 in /  34533.8 hPa Calm     88 % 0.0 in /  0 mm
23:00 4.6 °F /  -15.2 °C 2.8 °F /  -16.2 °C 1019.9 in /  34533.8 hPa Calm   1.6 mph /  2.6 km/h 88 % 0.0 in /  0 mm
23:05 4.6 °F /  -15.2 °C 2.8 °F /  -16.2 °C 1019.9 in /  34533.8 hPa Calm   1.6 mph /  2.6 km/h 88 % 0.0 in /  0 mm
23:10 4.6 °F /  -15.2 °C 2.8 °F /  -16.2 °C 1019.9 in /  34533.8 hPa Calm     88 % 0.0 in /  0 mm
23:15 4.6 °F /  -15.2 °C 2.8 °F /  -16.2 °C 1019.9 in /  34533.8 hPa Calm   1.6 mph /  2.6 km/h 88 % 0.0 in /  0 mm
23:20 4.5 °F /  -15.3 °C 2.7 °F /  -16.3 °C 1020.9 in /  34567.7 hPa Calm     88 % 0.0 in /  0 mm
23:25 4.5 °F /  -15.3 °C 2.7 °F /  -16.3 °C 1020.9 in /  34567.7 hPa Calm     88 % 0.0 in /  0 mm
23:30 4.4 °F /  -15.3 °C 2.6 °F /  -16.3 °C 1020.9 in /  34567.7 hPa Calm     88 % 0.0 in /  0 mm
23:35 4.4 °F /  -15.3 °C 2.6 °F /  -16.3 °C 1019.9 in /  34533.8 hPa Calm     88 % 0.0 in /  0 mm
23:40 4.4 °F /  -15.3 °C 2.6 °F /  -16.3 °C 1019.9 in /  34533.8 hPa Calm     88 % 0.0 in /  0 mm
23:45 4.3 °F /  -15.4 °C 2.5 °F /  -16.4 °C 1019.9 in /  34533.8 hPa Calm     88 % 0.0 in /  0 mm
23:50 4.4 °F /  -15.3 °C 2.7 °F /  -16.3 °C 1020.9 in /  34567.7 hPa Calm     89 % 0.0 in /  0 mm
23:55 4.4 °F /  -15.3 °C 2.7 °F /  -16.3 °C 1020.9 in /  34567.7 hPa Calm     89 % 0.0 in /  0 mm
Meteo Sesrovires
Elogis d' Weather Underground - 2 mb

Guio original per  Jim McMurry - jmcmurry@mwt.net Adaptat per a la plantilla per  Wim van der Kuil - Leuven-Template.eu

Trobareu la nostra informacio del temps tambe a:

Weather Underground

AWEKAS